createdAt,value
2023-08-02T00:00:45.247Z,15.91
2023-08-02T00:03:14.437Z,15.80
2023-08-02T00:05:42.112Z,15.75
2023-08-02T00:08:09.793Z,15.74
2023-08-02T00:10:38.865Z,15.85
2023-08-02T00:13:06.520Z,15.93
2023-08-02T00:15:34.270Z,15.82
2023-08-02T00:18:02.023Z,15.70
2023-08-02T00:20:29.612Z,15.62
2023-08-02T00:22:57.251Z,15.82
2023-08-02T00:25:25.288Z,15.55
2023-08-02T00:27:54.232Z,15.36
2023-08-02T00:30:21.930Z,15.24
2023-08-02T00:32:50.613Z,15.59
2023-08-02T00:35:18.665Z,15.31
2023-08-02T00:37:47.143Z,15.49
2023-08-02T00:40:15.292Z,15.42
2023-08-02T00:42:43.234Z,15.14
2023-08-02T00:45:12.456Z,15.40
2023-08-02T00:47:40.194Z,15.43
2023-08-02T00:50:08.847Z,15.39
2023-08-02T00:52:36.821Z,15.41
2023-08-02T00:55:04.967Z,15.53
2023-08-02T00:57:32.640Z,15.38
2023-08-02T01:00:00.562Z,15.45
2023-08-02T01:02:29.652Z,15.20
2023-08-02T01:04:57.647Z,15.53
2023-08-02T01:07:32.464Z,15.18
2023-08-02T01:10:08.893Z,15.34
2023-08-02T01:12:37.766Z,15.24
2023-08-02T01:15:06.837Z,15.19
2023-08-02T01:17:37.275Z,15.37
2023-08-02T01:20:07.819Z,15.36
2023-08-02T01:22:35.757Z,15.34
2023-08-02T01:25:05.577Z,15.22
2023-08-02T01:27:37.505Z,15.47
2023-08-02T01:30:08.128Z,15.35
2023-08-02T01:32:36.034Z,15.30
2023-08-02T01:35:04.003Z,15.58
2023-08-02T01:37:36.183Z,15.46
2023-08-02T01:40:03.883Z,15.40
2023-08-02T01:42:31.812Z,15.47
2023-08-02T01:44:59.519Z,15.34
2023-08-02T01:47:27.218Z,15.40
2023-08-02T01:49:54.850Z,15.30
2023-08-02T01:52:22.483Z,15.33
2023-08-02T01:54:51.394Z,15.37
2023-08-02T01:57:19.028Z,15.36
2023-08-02T01:59:49.204Z,15.21
2023-08-02T02:02:17.326Z,15.39
2023-08-02T02:04:45.320Z,15.24
2023-08-02T02:07:15.668Z,15.36
2023-08-02T02:09:43.337Z,15.32
2023-08-02T02:12:12.373Z,15.28
2023-08-02T02:14:39.963Z,15.32
2023-08-02T02:17:07.677Z,15.30
2023-08-02T02:19:35.482Z,15.32
2023-08-02T02:22:03.233Z,15.30
2023-08-02T02:24:30.988Z,15.29
2023-08-02T02:26:58.575Z,15.23
2023-08-02T02:29:27.615Z,15.35
2023-08-02T02:31:55.224Z,15.32
2023-08-02T02:34:22.873Z,15.29
2023-08-02T02:36:51.053Z,15.30
2023-08-02T02:39:18.712Z,15.26
2023-08-02T02:41:46.369Z,15.36
2023-08-02T02:44:14.106Z,15.34
2023-08-02T02:46:43.353Z,15.37
2023-08-02T02:49:11.333Z,15.28
2023-08-02T02:51:39.136Z,15.29
2023-08-02T02:54:06.840Z,15.35
2023-08-02T02:56:34.515Z,15.34
2023-08-02T02:59:02.276Z,15.36
2023-08-02T03:01:30.604Z,15.29
2023-08-02T03:03:59.575Z,15.36
2023-08-02T03:06:27.269Z,15.36
2023-08-02T03:08:55.057Z,15.34
2023-08-02T03:11:22.725Z,15.25
2023-08-02T03:13:50.323Z,15.34
2023-08-02T03:16:17.938Z,15.33
2023-08-02T03:18:45.564Z,15.29
2023-08-02T03:21:14.555Z,15.32
2023-08-02T03:23:43.695Z,15.27
2023-08-02T03:26:11.540Z,15.15
2023-08-02T03:28:39.164Z,15.19
2023-08-02T03:31:06.818Z,15.20
2023-08-02T03:33:34.636Z,15.09
2023-08-02T03:36:04.276Z,15.06
2023-08-02T03:38:33.316Z,15.06
2023-08-02T03:41:01.079Z,15.11
2023-08-02T03:43:28.698Z,15.00
2023-08-02T03:45:56.405Z,15.06
2023-08-02T03:48:24.151Z,15.02
2023-08-02T03:50:51.789Z,15.12
2023-08-02T03:53:19.411Z,14.87
2023-08-02T03:55:48.392Z,14.95
2023-08-02T03:58:15.961Z,14.94
2023-08-02T04:00:43.590Z,14.94
2023-08-02T04:03:11.226Z,14.85
2023-08-02T04:05:38.850Z,14.94
2023-08-02T04:08:06.591Z,14.93
2023-08-02T04:10:37.121Z,14.73
2023-08-02T04:13:06.235Z,14.80
2023-08-02T04:15:34.941Z,14.75
2023-08-02T04:18:02.631Z,14.88
2023-08-02T04:20:30.459Z,14.90
2023-08-02T04:22:58.277Z,14.73
2023-08-02T04:25:26.928Z,14.90
2023-08-02T04:27:54.513Z,14.91
2023-08-02T04:30:23.471Z,14.85
2023-08-02T04:32:51.558Z,14.69
2023-08-02T04:35:19.256Z,14.95
2023-08-02T04:37:47.536Z,14.86
2023-08-02T04:40:15.613Z,14.94
2023-08-02T04:42:43.428Z,14.94
2023-08-02T04:45:11.796Z,14.90
2023-08-02T04:47:40.803Z,14.81
2023-08-02T04:50:10.023Z,15.13
2023-08-02T04:52:37.658Z,15.07
2023-08-02T04:55:08.104Z,15.01
2023-08-02T04:57:37.023Z,15.06
2023-08-02T05:00:06.256Z,15.02
2023-08-02T05:02:37.424Z,15.09
2023-08-02T05:05:07.335Z,14.99
2023-08-02T05:07:35.993Z,15.14
2023-08-02T05:10:05.428Z,15.05
2023-08-02T05:12:35.150Z,15.10
2023-08-02T05:15:02.985Z,15.19
2023-08-02T05:17:31.616Z,15.31
2023-08-02T05:19:59.624Z,15.37
2023-08-02T05:22:28.751Z,15.28
2023-08-02T05:24:56.459Z,15.41
2023-08-02T05:27:24.058Z,15.45
2023-08-02T05:29:53.546Z,15.35
2023-08-02T05:32:21.224Z,15.31
2023-08-02T05:34:48.843Z,15.25
2023-08-02T05:37:16.446Z,15.48
2023-08-02T05:39:45.410Z,15.51
2023-08-02T05:42:13.029Z,15.77
2023-08-02T05:44:40.646Z,15.94
2023-08-02T05:47:08.295Z,16.06
2023-08-02T05:49:35.909Z,16.16
2023-08-02T05:52:03.597Z,16.22
2023-08-02T05:54:31.182Z,16.36
2023-08-02T05:57:00.215Z,16.40
2023-08-02T05:59:29.200Z,16.51
2023-08-02T06:01:56.811Z,16.60
2023-08-02T06:04:24.450Z,16.61
2023-08-02T06:06:52.224Z,16.75
2023-08-02T06:09:20.096Z,16.95
2023-08-02T06:11:47.847Z,17.21
2023-08-02T06:14:16.928Z,17.28
2023-08-02T06:16:44.645Z,17.29
2023-08-02T06:19:12.318Z,17.47
2023-08-02T06:21:40.240Z,17.38
2023-08-02T06:24:08.366Z,17.54
2023-08-02T06:26:36.014Z,17.53
2023-08-02T06:29:03.760Z,17.69
2023-08-02T06:31:32.750Z,17.68
2023-08-02T06:34:00.395Z,17.89
2023-08-02T06:36:28.010Z,17.91
2023-08-02T06:38:55.616Z,18.05
2023-08-02T06:41:23.262Z,18.01
2023-08-02T06:43:50.865Z,17.97
2023-08-02T06:46:18.494Z,18.67
2023-08-02T06:48:47.499Z,18.14
2023-08-02T06:51:15.344Z,18.74
2023-08-02T06:53:43.482Z,18.95
2023-08-02T06:56:12.413Z,18.62
2023-08-02T06:58:40.046Z,18.87
2023-08-02T07:01:17.518Z,19.53
2023-08-02T07:03:47.352Z,19.19
2023-08-02T07:06:17.449Z,19.38
2023-08-02T07:08:46.290Z,19.59
2023-08-02T07:11:26.098Z,19.59
2023-08-02T07:13:59.001Z,19.68
2023-08-02T07:16:26.664Z,19.22
2023-08-02T07:18:56.253Z,20.32
2023-08-02T07:21:23.915Z,19.83
2023-08-02T07:23:51.511Z,20.56
2023-08-02T07:26:19.271Z,19.96
2023-08-02T07:28:46.852Z,19.87
2023-08-02T07:31:15.024Z,21.01
2023-08-02T07:33:43.480Z,20.07
2023-08-02T07:36:16.896Z,20.91
2023-08-02T07:38:45.396Z,21.14
2023-08-02T07:41:13.112Z,20.93
2023-08-02T07:43:40.930Z,20.76
2023-08-02T07:46:17.572Z,20.74
2023-08-02T07:48:45.245Z,21.64
2023-08-02T07:51:13.011Z,21.20
2023-08-02T07:53:41.988Z,20.95
2023-08-02T07:56:10.122Z,20.30
2023-08-02T07:58:38.442Z,21.19
2023-08-02T08:01:07.751Z,21.23
2023-08-02T08:03:35.533Z,21.56
2023-08-02T08:06:12.550Z,20.73
2023-08-02T08:08:41.803Z,21.69
2023-08-02T08:11:09.534Z,21.57
2023-08-02T08:13:37.252Z,21.42
2023-08-02T08:16:05.310Z,21.76
2023-08-02T08:18:33.941Z,21.82
2023-08-02T08:21:04.295Z,20.55
2023-08-02T08:23:32.532Z,21.41
2023-08-02T08:26:01.716Z,21.97
2023-08-02T08:28:29.911Z,21.44
2023-08-02T08:31:01.549Z,21.91
2023-08-02T08:33:29.341Z,20.60
2023-08-02T08:35:57.014Z,20.96
2023-08-02T08:38:24.699Z,21.30
2023-08-02T08:40:52.627Z,21.25
2023-08-02T08:43:22.388Z,21.68
2023-08-02T08:45:51.719Z,20.81
2023-08-02T08:48:19.398Z,22.33
2023-08-02T08:50:49.053Z,21.93
2023-08-02T08:53:20.857Z,22.55
2023-08-02T08:55:51.313Z,20.84
2023-08-02T08:58:19.058Z,21.02
2023-08-02T09:00:48.378Z,21.12
2023-08-02T09:03:17.626Z,20.57
2023-08-02T09:05:45.593Z,21.87
2023-08-02T09:08:13.295Z,20.83
2023-08-02T09:10:41.272Z,21.79
2023-08-02T09:13:22.009Z,21.30
2023-08-02T09:16:07.165Z,21.17
2023-08-02T09:18:39.433Z,21.97
2023-08-02T09:21:07.772Z,21.57
2023-08-02T09:23:35.501Z,21.45
2023-08-02T09:26:12.770Z,20.88
2023-08-02T09:28:40.504Z,22.20
2023-08-02T09:31:19.903Z,21.54
2023-08-02T09:33:51.678Z,20.83
2023-08-02T09:36:27.583Z,21.69
2023-08-02T09:38:59.703Z,21.88
2023-08-02T09:41:52.199Z,22.51
2023-08-02T09:44:26.248Z,22.88
2023-08-02T09:46:54.366Z,22.17
2023-08-02T09:49:23.839Z,22.16
2023-08-02T09:51:51.425Z,22.74
2023-08-02T09:54:19.450Z,21.28
2023-08-02T09:56:48.895Z,20.92
2023-08-02T09:59:19.885Z,20.64
2023-08-02T10:01:49.989Z,21.47
2023-08-02T10:04:21.006Z,21.27
2023-08-02T10:06:52.949Z,21.93
2023-08-02T10:09:21.922Z,20.94
2023-08-02T10:11:56.800Z,20.87
2023-08-02T10:14:25.669Z,21.19
2023-08-02T10:16:53.943Z,20.57
2023-08-02T10:19:22.346Z,20.05
2023-08-02T10:21:51.726Z,20.30
2023-08-02T10:24:19.830Z,20.46
2023-08-02T10:26:47.637Z,20.91
2023-08-02T10:29:17.099Z,20.05
2023-08-02T10:31:44.912Z,19.87
2023-08-02T10:34:48.025Z,19.87
2023-08-02T10:37:16.424Z,20.22
2023-08-02T10:39:53.600Z,19.57
2023-08-02T10:42:22.384Z,19.65
2023-08-02T10:45:16.896Z,18.99
2023-08-02T10:47:44.948Z,19.27
2023-08-02T10:50:47.021Z,19.37
2023-08-02T10:53:14.776Z,18.36
2023-08-02T10:56:03.827Z,19.26
2023-08-02T10:58:46.827Z,18.86
2023-08-02T11:01:15.882Z,19.15
2023-08-02T11:03:43.654Z,19.01
2023-08-02T11:06:25.303Z,18.96
2023-08-02T11:08:53.020Z,18.88
2023-08-02T11:11:31.737Z,19.80
2023-08-02T11:13:59.381Z,19.10
2023-08-02T11:19:02.079Z,18.60
2023-08-02T11:21:29.863Z,18.65
2023-08-02T11:24:02.266Z,18.53
2023-08-02T11:26:56.263Z,18.68
2023-08-02T11:29:18.644Z,18.66
2023-08-02T11:31:48.564Z,18.75
2023-08-02T11:34:20.428Z,19.01
2023-08-02T11:36:49.662Z,18.48
2023-08-02T11:39:17.841Z,18.78
2023-08-02T11:41:45.494Z,19.01
2023-08-02T11:44:16.834Z,18.30
2023-08-02T11:46:45.746Z,18.25
2023-08-02T11:49:14.965Z,18.01
2023-08-02T11:51:43.294Z,18.21
2023-08-02T11:54:11.493Z,18.29
2023-08-02T11:56:39.700Z,18.54
2023-08-02T11:59:12.547Z,18.29
2023-08-02T12:01:42.852Z,18.32
2023-08-02T12:04:12.188Z,18.94
2023-08-02T12:06:49.220Z,18.47
2023-08-02T12:09:17.852Z,18.29
2023-08-02T12:11:46.234Z,18.75
2023-08-02T12:14:13.854Z,19.07
2023-08-02T12:16:42.713Z,18.65
2023-08-02T12:19:11.310Z,18.64
2023-08-02T12:21:39.932Z,18.57
2023-08-02T12:24:16.073Z,18.60
2023-08-02T12:26:44.313Z,18.55
2023-08-02T12:29:23.341Z,18.39
2023-08-02T12:31:51.130Z,18.87
2023-08-02T12:34:18.862Z,18.84
2023-08-02T12:36:48.913Z,19.10
2023-08-02T12:39:17.905Z,18.97
2023-08-02T12:41:46.114Z,19.21
2023-08-02T12:44:13.799Z,19.19
2023-08-02T12:46:41.591Z,18.93
2023-08-02T12:49:09.465Z,18.85
2023-08-02T12:51:39.672Z,18.70
2023-08-02T12:54:07.535Z,19.46
2023-08-02T12:56:36.840Z,19.44
2023-08-02T12:59:04.497Z,19.24
2023-08-02T13:01:33.930Z,19.46
2023-08-02T13:04:03.735Z,19.42
2023-08-02T13:06:35.400Z,19.56
2023-08-02T13:09:03.554Z,19.34
2023-08-02T13:11:31.637Z,19.40
2023-08-02T13:14:00.654Z,18.93
2023-08-02T13:16:28.370Z,19.61
2023-08-02T13:18:56.377Z,19.27
2023-08-02T13:21:24.739Z,19.14
2023-08-02T13:23:52.402Z,19.55
2023-08-02T13:26:21.087Z,19.13
2023-08-02T13:28:48.910Z,18.73
2023-08-02T13:31:17.997Z,19.06
2023-08-02T13:33:47.233Z,18.91
2023-08-02T13:36:14.928Z,19.11
2023-08-02T13:38:42.544Z,19.31
2023-08-02T13:41:10.279Z,19.02
2023-08-02T13:43:37.874Z,19.13
2023-08-02T13:46:05.559Z,19.19
2023-08-02T13:48:34.497Z,19.21
2023-08-02T13:51:02.117Z,19.32
2023-08-02T13:53:29.809Z,19.30
2023-08-02T13:55:57.604Z,19.12
2023-08-02T13:58:26.040Z,18.61
2023-08-02T14:00:54.416Z,19.13
2023-08-02T14:03:22.095Z,19.11
2023-08-02T14:05:51.359Z,18.98
2023-08-02T14:08:18.995Z,18.97
2023-08-02T14:10:47.467Z,19.05
2023-08-02T14:13:15.190Z,19.22
2023-08-02T14:15:42.827Z,19.07
2023-08-02T14:18:10.516Z,19.00
2023-08-02T14:20:38.150Z,19.17
2023-08-02T14:23:07.165Z,19.26
2023-08-02T14:25:34.755Z,18.99
2023-08-02T14:28:02.468Z,19.02
2023-08-02T14:30:30.151Z,19.32
2023-08-02T14:32:57.821Z,19.47
2023-08-02T14:35:25.425Z,19.30
2023-08-02T14:37:53.063Z,19.27
2023-08-02T14:40:22.308Z,19.44
2023-08-02T14:42:49.969Z,19.51
2023-08-02T14:45:17.583Z,19.36
2023-08-02T14:47:45.309Z,19.51
2023-08-02T14:50:13.375Z,19.36
2023-08-02T14:52:40.985Z,19.52
2023-08-02T14:55:09.312Z,19.74
2023-08-02T14:57:38.274Z,19.64
2023-08-02T15:00:06.924Z,19.47
2023-08-02T15:02:36.816Z,19.68
2023-08-02T15:05:05.073Z,19.85
2023-08-02T15:07:32.627Z,19.73
2023-08-02T15:10:00.403Z,19.57
2023-08-02T15:12:28.024Z,19.54
2023-08-02T15:14:56.989Z,19.63
2023-08-02T15:17:25.169Z,19.51
2023-08-02T15:19:52.846Z,19.55
2023-08-02T15:22:20.443Z,19.53
2023-08-02T15:24:48.038Z,19.81
2023-08-02T15:27:15.835Z,19.53
2023-08-02T15:29:43.489Z,19.53
2023-08-02T15:32:12.464Z,19.69
2023-08-02T15:34:40.823Z,19.67
2023-08-02T15:37:08.416Z,19.64
2023-08-02T15:39:36.013Z,19.71
2023-08-02T15:42:03.882Z,19.91
2023-08-02T15:44:31.543Z,19.72
2023-08-02T15:46:59.404Z,19.70
2023-08-02T15:49:28.384Z,19.78
2023-08-02T15:51:56.031Z,19.83
2023-08-02T15:54:23.625Z,19.87
2023-08-02T15:56:51.266Z,19.89
2023-08-02T15:59:19.017Z,19.97
2023-08-02T16:01:46.642Z,20.01
2023-08-02T16:04:14.329Z,20.00
2023-08-02T16:06:43.305Z,20.28
2023-08-02T16:09:10.928Z,20.29
2023-08-02T16:11:38.546Z,20.03
2023-08-02T16:14:06.660Z,20.20
2023-08-02T16:16:34.424Z,19.97
2023-08-02T16:19:02.218Z,19.94
2023-08-02T16:21:29.803Z,20.12
2023-08-02T16:23:58.725Z,19.94
2023-08-02T16:26:26.351Z,20.09
2023-08-02T16:28:54.193Z,19.92
2023-08-02T16:31:21.807Z,20.07
2023-08-02T16:33:49.450Z,20.28
2023-08-02T16:36:17.049Z,20.25
2023-08-02T16:38:44.642Z,20.08
2023-08-02T16:41:13.588Z,19.83
2023-08-02T16:43:41.542Z,19.97
2023-08-02T16:46:09.402Z,20.02
2023-08-02T16:48:37.032Z,19.76
2023-08-02T16:51:04.789Z,20.01
2023-08-02T16:53:32.395Z,20.08
2023-08-02T16:56:00.039Z,19.91
2023-08-02T16:58:28.982Z,20.00
2023-08-02T17:00:56.569Z,19.79
2023-08-02T17:03:24.165Z,19.64
2023-08-02T17:05:52.124Z,19.55
2023-08-02T17:08:19.806Z,19.44
2023-08-02T17:10:47.443Z,19.06
2023-08-02T17:13:15.018Z,18.97
2023-08-02T17:15:44.138Z,18.73
2023-08-02T17:18:11.724Z,18.87
2023-08-02T17:20:39.805Z,19.29
2023-08-02T17:23:07.410Z,18.28
2023-08-02T17:25:35.005Z,18.77
2023-08-02T17:28:02.684Z,18.06
2023-08-02T17:30:32.124Z,18.18
2023-08-02T17:33:01.482Z,17.90
2023-08-02T17:35:29.128Z,17.95
2023-08-02T17:37:59.568Z,18.10
2023-08-02T17:40:27.820Z,17.67
2023-08-02T17:42:55.662Z,17.32
2023-08-02T17:45:24.756Z,18.01
2023-08-02T17:47:52.402Z,17.68
2023-08-02T17:50:21.528Z,17.73
2023-08-02T17:52:49.236Z,17.70
2023-08-02T17:55:17.620Z,17.65
2023-08-02T17:57:45.385Z,17.74
2023-08-02T18:00:14.146Z,17.63
2023-08-02T18:02:41.883Z,17.65
2023-08-02T18:05:09.689Z,17.81
2023-08-02T18:07:38.697Z,18.36
2023-08-02T18:10:07.233Z,18.72
2023-08-02T18:12:34.944Z,17.92
2023-08-02T18:15:02.599Z,17.79
2023-08-02T18:17:30.328Z,18.34
2023-08-02T18:19:57.972Z,18.44
2023-08-02T18:22:25.706Z,18.50
2023-08-02T18:24:54.671Z,17.93
2023-08-02T18:27:22.353Z,18.45
2023-08-02T18:29:49.956Z,18.17
2023-08-02T18:32:18.004Z,17.54
2023-08-02T18:34:46.799Z,17.19
2023-08-02T18:37:14.751Z,17.64
2023-08-02T18:39:42.381Z,17.71
2023-08-02T18:42:11.446Z,17.30
2023-08-02T18:44:39.066Z,17.54
2023-08-02T18:47:07.065Z,17.15
2023-08-02T18:49:34.642Z,17.72
2023-08-02T18:52:05.000Z,17.89
2023-08-02T18:54:32.814Z,17.65
2023-08-02T18:57:00.418Z,17.85
2023-08-02T18:59:29.337Z,17.90
2023-08-02T19:01:57.211Z,18.16
2023-08-02T19:04:25.058Z,18.19
2023-08-02T19:06:52.846Z,18.26
2023-08-02T19:09:20.773Z,18.21
2023-08-02T19:11:48.493Z,18.21
2023-08-02T19:14:17.246Z,18.15
2023-08-02T19:16:46.252Z,17.56
2023-08-02T19:19:22.842Z,17.20
2023-08-02T19:21:51.793Z,17.00
2023-08-02T19:24:19.733Z,16.68
2023-08-02T19:26:47.533Z,16.77
2023-08-02T19:29:21.893Z,17.07
2023-08-02T19:31:51.440Z,17.48
2023-08-02T19:34:19.165Z,17.40
2023-08-02T19:36:46.947Z,17.59
2023-08-02T19:39:14.840Z,17.37
2023-08-02T19:41:44.387Z,16.98
2023-08-02T19:44:12.420Z,16.84
2023-08-02T19:46:40.055Z,16.75
2023-08-02T19:49:09.333Z,16.35
2023-08-02T19:51:36.966Z,17.02
2023-08-02T19:54:08.912Z,17.09
2023-08-02T19:56:36.661Z,16.67
2023-08-02T19:59:04.444Z,16.27
2023-08-02T20:01:32.188Z,16.30
2023-08-02T20:04:00.148Z,16.78
2023-08-02T20:06:29.742Z,17.01
2023-08-02T20:08:57.383Z,16.60
2023-08-02T20:11:25.078Z,16.62
2023-08-02T20:13:53.299Z,16.82
2023-08-02T20:16:23.050Z,16.88
2023-08-02T20:18:52.631Z,16.75
2023-08-02T20:21:23.176Z,16.63
2023-08-02T20:23:57.835Z,16.51
2023-08-02T20:26:26.175Z,16.67
2023-08-02T20:28:56.166Z,16.90
2023-08-02T20:31:25.738Z,16.61
2023-08-02T20:33:55.158Z,16.77
2023-08-02T20:36:23.884Z,16.55
2023-08-02T20:38:54.842Z,16.73
2023-08-02T20:41:24.438Z,16.87
2023-08-02T20:43:53.483Z,16.61
2023-08-02T20:46:22.314Z,16.41
2023-08-02T20:48:52.638Z,16.67
2023-08-02T20:51:20.392Z,16.86
2023-08-02T20:53:48.656Z,16.69
2023-08-02T20:56:23.117Z,16.93
2023-08-02T20:58:51.236Z,17.02
2023-08-02T21:01:19.058Z,16.89
2023-08-02T21:03:47.992Z,17.02
2023-08-02T21:06:16.923Z,16.84
2023-08-02T21:08:46.654Z,16.86
2023-08-02T21:11:14.442Z,16.91
2023-08-02T21:13:43.367Z,17.02
2023-08-02T21:16:12.501Z,16.79
2023-08-02T21:18:42.196Z,16.74
2023-08-02T21:21:10.354Z,16.80
2023-08-02T21:23:40.909Z,16.77
2023-08-02T21:26:10.094Z,16.80
2023-08-02T21:28:40.486Z,16.87
2023-08-02T21:31:13.874Z,16.89
2023-08-02T21:33:41.946Z,16.89
2023-08-02T21:36:12.506Z,16.85
2023-08-02T21:38:40.536Z,16.90
2023-08-02T21:41:09.855Z,16.99
2023-08-02T21:43:39.484Z,16.94
2023-08-02T21:46:11.433Z,17.01
2023-08-02T21:48:46.367Z,16.86
2023-08-02T21:51:14.332Z,16.81
2023-08-02T21:53:46.358Z,16.92
2023-08-02T21:56:14.334Z,16.98
2023-08-02T21:58:44.440Z,16.92
2023-08-02T22:01:18.810Z,16.92
2023-08-02T22:03:46.771Z,16.89
2023-08-02T22:06:17.164Z,16.94
2023-08-02T22:08:44.993Z,16.85
2023-08-02T22:11:15.745Z,16.88
2023-08-02T22:13:44.249Z,16.88
2023-08-02T22:16:14.969Z,16.87
2023-08-02T22:18:42.773Z,16.88
2023-08-02T22:21:10.443Z,16.87
2023-08-02T22:23:38.183Z,16.88
2023-08-02T22:26:06.213Z,16.92
2023-08-02T22:28:33.920Z,16.89
2023-08-02T22:31:01.547Z,16.89
2023-08-02T22:33:30.495Z,16.89
2023-08-02T22:35:58.511Z,16.86
2023-08-02T22:38:37.747Z,16.93
2023-08-02T22:41:13.756Z,16.91
2023-08-02T22:43:41.404Z,16.81
2023-08-02T22:46:09.096Z,16.87
2023-08-02T22:51:08.691Z,16.78
2023-08-02T22:53:36.473Z,16.89
2023-08-02T22:56:05.013Z,16.82
2023-08-02T22:58:32.871Z,16.68
2023-08-02T23:01:01.509Z,16.70
2023-08-02T23:03:37.136Z,16.70
2023-08-02T23:06:06.699Z,16.55
2023-08-02T23:08:36.432Z,16.56
2023-08-02T23:11:05.273Z,16.46
2023-08-02T23:13:33.311Z,16.51
2023-08-02T23:16:02.277Z,16.40
2023-08-02T23:18:29.943Z,16.35
2023-08-02T23:20:57.586Z,16.39
2023-08-02T23:23:28.380Z,16.33
2023-08-02T23:26:01.745Z,16.25
2023-08-02T23:28:30.232Z,16.32
2023-08-02T23:30:58.468Z,16.29
2023-08-02T23:33:26.147Z,16.34
2023-08-02T23:35:53.817Z,16.38
2023-08-02T23:38:21.524Z,16.39
2023-08-02T23:40:50.536Z,16.26
2023-08-02T23:43:18.174Z,16.31
2023-08-02T23:45:45.791Z,16.34
2023-08-02T23:48:13.434Z,16.31
2023-08-02T23:50:41.055Z,16.31
2023-08-02T23:53:08.719Z,16.39
2023-08-02T23:55:36.381Z,16.38
2023-08-02T23:58:05.312Z,16.33
